sensor_id;sensor_type;location;lat;lon;timestamp;temperature;humidity
71155;DHT22;59375;53.216;5.728;2023-02-15T00:01:23;2.00;99.90
71155;DHT22;59375;53.216;5.728;2023-02-15T00:03:48;2.10;99.90
71155;DHT22;59375;53.216;5.728;2023-02-15T00:06:14;2.30;99.90
71155;DHT22;59375;53.216;5.728;2023-02-15T00:08:39;2.40;99.90
71155;DHT22;59375;53.216;5.728;2023-02-15T00:11:13;2.60;99.90
71155;DHT22;59375;53.216;5.728;2023-02-15T00:13:39;2.70;99.90
71155;DHT22;59375;53.216;5.728;2023-02-15T00:16:08;2.70;99.90
71155;DHT22;59375;53.216;5.728;2023-02-15T00:18:34;2.80;99.90
71155;DHT22;59375;53.216;5.728;2023-02-15T00:21:04;2.80;99.90
71155;DHT22;59375;53.216;5.728;2023-02-15T00:23:30;2.80;99.90
71155;DHT22;59375;53.216;5.728;2023-02-15T00:26:08;2.80;99.90
71155;DHT22;59375;53.216;5.728;2023-02-15T00:28:34;2.70;99.90
71155;DHT22;59375;53.216;5.728;2023-02-15T00:31:06;2.60;99.90
71155;DHT22;59375;53.216;5.728;2023-02-15T00:33:32;2.50;99.90
71155;DHT22;59375;53.216;5.728;2023-02-15T00:35:58;2.50;99.90
71155;DHT22;59375;53.216;5.728;2023-02-15T00:38:24;2.50;99.90
71155;DHT22;59375;53.216;5.728;2023-02-15T00:40:53;2.60;99.90
71155;DHT22;59375;53.216;5.728;2023-02-15T00:43:19;2.60;99.90
71155;DHT22;59375;53.216;5.728;2023-02-15T00:45:45;2.60;99.90
71155;DHT22;59375;53.216;5.728;2023-02-15T00:48:10;2.60;99.90
71155;DHT22;59375;53.216;5.728;2023-02-15T00:50:36;2.70;99.90
71155;DHT22;59375;53.216;5.728;2023-02-15T00:53:01;2.70;99.90
71155;DHT22;59375;53.216;5.728;2023-02-15T00:55:26;2.70;99.90
71155;DHT22;59375;53.216;5.728;2023-02-15T00:57:52;2.70;99.90
71155;DHT22;59375;53.216;5.728;2023-02-15T01:00:17;2.70;99.90
71155;DHT22;59375;53.216;5.728;2023-02-15T01:02:43;2.70;99.90
71155;DHT22;59375;53.216;5.728;2023-02-15T01:05:08;2.70;99.90
71155;DHT22;59375;53.216;5.728;2023-02-15T01:07:34;2.70;99.90
71155;DHT22;59375;53.216;5.728;2023-02-15T01:09:59;2.70;99.90
71155;DHT22;59375;53.216;5.728;2023-02-15T01:12:24;2.70;99.90
71155;DHT22;59375;53.216;5.728;2023-02-15T01:14:50;2.70;99.90
71155;DHT22;59375;53.216;5.728;2023-02-15T01:17:15;2.60;99.90
71155;DHT22;59375;53.216;5.728;2023-02-15T01:19:41;2.60;99.90
71155;DHT22;59375;53.216;5.728;2023-02-15T01:22:06;2.60;99.90
71155;DHT22;59375;53.216;5.728;2023-02-15T01:24:32;2.60;99.90
71155;DHT22;59375;53.216;5.728;2023-02-15T01:26:57;2.50;99.90
71155;DHT22;59375;53.216;5.728;2023-02-15T01:29:23;2.50;99.90
71155;DHT22;59375;53.216;5.728;2023-02-15T01:31:48;2.40;99.90
71155;DHT22;59375;53.216;5.728;2023-02-15T01:34:14;2.40;99.90
71155;DHT22;59375;53.216;5.728;2023-02-15T01:36:39;2.30;99.90
71155;DHT22;59375;53.216;5.728;2023-02-15T01:39:05;2.20;99.90
71155;DHT22;59375;53.216;5.728;2023-02-15T01:41:30;2.10;99.90
71155;DHT22;59375;53.216;5.728;2023-02-15T01:43:58;1.90;99.90
71155;DHT22;59375;53.216;5.728;2023-02-15T01:46:26;1.80;99.90
71155;DHT22;59375;53.216;5.728;2023-02-15T01:48:54;1.60;99.90
71155;DHT22;59375;53.216;5.728;2023-02-15T01:51:22;1.50;99.90
71155;DHT22;59375;53.216;5.728;2023-02-15T01:53:51;1.40;99.90
71155;DHT22;59375;53.216;5.728;2023-02-15T01:56:18;1.40;99.90
71155;DHT22;59375;53.216;5.728;2023-02-15T01:58:44;1.50;99.90
71155;DHT22;59375;53.216;5.728;2023-02-15T02:01:10;1.50;99.90
71155;DHT22;59375;53.216;5.728;2023-02-15T02:06:01;1.70;99.90
71155;DHT22;59375;53.216;5.728;2023-02-15T02:08:27;1.70;99.90
71155;DHT22;59375;53.216;5.728;2023-02-15T02:10:53;1.80;99.90
71155;DHT22;59375;53.216;5.728;2023-02-15T02:13:18;1.80;99.90
71155;DHT22;59375;53.216;5.728;2023-02-15T02:15:48;1.80;99.90
71155;DHT22;59375;53.216;5.728;2023-02-15T02:18:20;1.70;99.90
71155;DHT22;59375;53.216;5.728;2023-02-15T02:23:38;1.50;99.90
71155;DHT22;59375;53.216;5.728;2023-02-15T02:34:30;1.50;99.90
71155;DHT22;59375;53.216;5.728;2023-02-15T02:39:33;1.50;99.90
71155;DHT22;59375;53.216;5.728;2023-02-15T02:44:54;1.60;99.90
71155;DHT22;59375;53.216;5.728;2023-02-15T02:47:21;1.60;99.90
71155;DHT22;59375;53.216;5.728;2023-02-15T02:49:51;1.70;99.90
71155;DHT22;59375;53.216;5.728;2023-02-15T02:55:02;1.70;99.90
71155;DHT22;59375;53.216;5.728;2023-02-15T02:57:28;1.70;99.90
71155;DHT22;59375;53.216;5.728;2023-02-15T02:59:55;1.70;99.90
71155;DHT22;59375;53.216;5.728;2023-02-15T03:02:22;1.60;99.90
71155;DHT22;59375;53.216;5.728;2023-02-15T03:04:50;1.70;99.90
71155;DHT22;59375;53.216;5.728;2023-02-15T03:07:23;1.70;99.90
71155;DHT22;59375;53.216;5.728;2023-02-15T03:09:53;1.70;99.90
71155;DHT22;59375;53.216;5.728;2023-02-15T03:12:20;1.80;99.90
71155;DHT22;59375;53.216;5.728;2023-02-15T03:14:51;1.80;99.90
71155;DHT22;59375;53.216;5.728;2023-02-15T03:17:17;1.80;99.90
71155;DHT22;59375;53.216;5.728;2023-02-15T03:19:44;1.80;99.90
71155;DHT22;59375;53.216;5.728;2023-02-15T03:22:18;1.90;99.90
71155;DHT22;59375;53.216;5.728;2023-02-15T03:24:48;1.90;99.90
71155;DHT22;59375;53.216;5.728;2023-02-15T03:27:20;1.90;99.90
71155;DHT22;59375;53.216;5.728;2023-02-15T03:29:48;1.80;99.90
71155;DHT22;59375;53.216;5.728;2023-02-15T03:32:15;1.80;99.90
71155;DHT22;59375;53.216;5.728;2023-02-15T03:34:41;1.80;99.90
71155;DHT22;59375;53.216;5.728;2023-02-15T03:37:12;1.70;99.90
71155;DHT22;59375;53.216;5.728;2023-02-15T03:39:45;1.80;99.90
71155;DHT22;59375;53.216;5.728;2023-02-15T03:42:13;1.80;99.90
71155;DHT22;59375;53.216;5.728;2023-02-15T03:44:47;1.70;99.90
71155;DHT22;59375;53.216;5.728;2023-02-15T03:47:22;1.70;99.90
71155;DHT22;59375;53.216;5.728;2023-02-15T03:49:53;1.70;99.90
71155;DHT22;59375;53.216;5.728;2023-02-15T03:52:20;1.80;99.90
71155;DHT22;59375;53.216;5.728;2023-02-15T03:54:46;1.70;99.90
71155;DHT22;59375;53.216;5.728;2023-02-15T03:57:18;1.60;99.90
71155;DHT22;59375;53.216;5.728;2023-02-15T04:00:05;1.60;99.90
71155;DHT22;59375;53.216;5.728;2023-02-15T04:03:06;1.60;99.90
71155;DHT22;59375;53.216;5.728;2023-02-15T04:05:33;1.50;99.90
71155;DHT22;59375;53.216;5.728;2023-02-15T04:07:59;1.40;99.90
71155;DHT22;59375;53.216;5.728;2023-02-15T04:10:24;1.30;99.90
71155;DHT22;59375;53.216;5.728;2023-02-15T04:13:08;1.30;99.90
71155;DHT22;59375;53.216;5.728;2023-02-15T04:15:34;1.30;99.90
71155;DHT22;59375;53.216;5.728;2023-02-15T04:18:18;1.30;99.90
71155;DHT22;59375;53.216;5.728;2023-02-15T04:20:44;1.30;99.90
71155;DHT22;59375;53.216;5.728;2023-02-15T04:23:28;1.40;99.90
71155;DHT22;59375;53.216;5.728;2023-02-15T04:26:12;1.40;99.90
71155;DHT22;59375;53.216;5.728;2023-02-15T04:28:38;1.40;99.90
71155;DHT22;59375;53.216;5.728;2023-02-15T04:31:03;1.40;99.90
71155;DHT22;59375;53.216;5.728;2023-02-15T04:33:28;1.40;99.90
71155;DHT22;59375;53.216;5.728;2023-02-15T04:35:54;1.50;99.90
71155;DHT22;59375;53.216;5.728;2023-02-15T04:38:19;1.40;99.90
71155;DHT22;59375;53.216;5.728;2023-02-15T04:40:48;1.40;99.90
71155;DHT22;59375;53.216;5.728;2023-02-15T04:43:14;1.40;99.90
71155;DHT22;59375;53.216;5.728;2023-02-15T04:45:39;1.50;99.90
71155;DHT22;59375;53.216;5.728;2023-02-15T04:48:05;1.40;99.90
71155;DHT22;59375;53.216;5.728;2023-02-15T04:50:30;1.40;99.90
71155;DHT22;59375;53.216;5.728;2023-02-15T04:52:56;1.40;99.90
71155;DHT22;59375;53.216;5.728;2023-02-15T04:55:21;1.40;99.90
71155;DHT22;59375;53.216;5.728;2023-02-15T04:57:47;1.40;99.90
71155;DHT22;59375;53.216;5.728;2023-02-15T05:00:12;1.40;99.90
71155;DHT22;59375;53.216;5.728;2023-02-15T05:02:38;1.40;99.90
71155;DHT22;59375;53.216;5.728;2023-02-15T05:05:03;1.40;99.90
71155;DHT22;59375;53.216;5.728;2023-02-15T05:07:29;1.40;99.90
71155;DHT22;59375;53.216;5.728;2023-02-15T05:09:54;1.40;99.90
71155;DHT22;59375;53.216;5.728;2023-02-15T05:12:19;1.40;99.90
71155;DHT22;59375;53.216;5.728;2023-02-15T05:14:45;1.40;99.90
71155;DHT22;59375;53.216;5.728;2023-02-15T05:17:11;1.40;99.90
71155;DHT22;59375;53.216;5.728;2023-02-15T05:19:36;1.50;99.90
71155;DHT22;59375;53.216;5.728;2023-02-15T05:22:02;1.50;99.90
71155;DHT22;59375;53.216;5.728;2023-02-15T05:24:27;1.50;99.90
71155;DHT22;59375;53.216;5.728;2023-02-15T05:27:11;1.50;99.90
71155;DHT22;59375;53.216;5.728;2023-02-15T05:29:55;1.50;99.90
71155;DHT22;59375;53.216;5.728;2023-02-15T05:32:21;1.50;99.90
71155;DHT22;59375;53.216;5.728;2023-02-15T05:34:46;1.50;99.90
71155;DHT22;59375;53.216;5.728;2023-02-15T05:37:12;1.50;99.90
71155;DHT22;59375;53.216;5.728;2023-02-15T05:39:37;1.60;99.90
71155;DHT22;59375;53.216;5.728;2023-02-15T05:42:03;1.60;99.90
71155;DHT22;59375;53.216;5.728;2023-02-15T05:44:28;1.60;99.90
71155;DHT22;59375;53.216;5.728;2023-02-15T05:46:54;1.60;99.90
71155;DHT22;59375;53.216;5.728;2023-02-15T05:49:19;1.60;99.90
71155;DHT22;59375;53.216;5.728;2023-02-15T05:51:44;1.60;99.90
71155;DHT22;59375;53.216;5.728;2023-02-15T05:54:10;1.60;99.90
71155;DHT22;59375;53.216;5.728;2023-02-15T05:56:35;1.60;99.90
71155;DHT22;59375;53.216;5.728;2023-02-15T05:59:01;1.60;99.90
71155;DHT22;59375;53.216;5.728;2023-02-15T06:01:26;1.60;99.90
71155;DHT22;59375;53.216;5.728;2023-02-15T06:03:52;1.60;99.90
71155;DHT22;59375;53.216;5.728;2023-02-15T06:06:17;1.60;99.90
71155;DHT22;59375;53.216;5.728;2023-02-15T06:08:43;1.60;99.90
71155;DHT22;59375;53.216;5.728;2023-02-15T06:11:08;1.60;99.90
71155;DHT22;59375;53.216;5.728;2023-02-15T06:13:34;1.60;99.90
71155;DHT22;59375;53.216;5.728;2023-02-15T06:16:00;1.60;99.90
71155;DHT22;59375;53.216;5.728;2023-02-15T06:18:25;1.60;99.90
71155;DHT22;59375;53.216;5.728;2023-02-15T06:20:51;1.60;99.90
71155;DHT22;59375;53.216;5.728;2023-02-15T06:23:16;1.60;99.90
71155;DHT22;59375;53.216;5.728;2023-02-15T06:25:42;1.60;99.90
71155;DHT22;59375;53.216;5.728;2023-02-15T06:28:07;1.60;99.90
71155;DHT22;59375;53.216;5.728;2023-02-15T06:30:33;1.50;99.90
71155;DHT22;59375;53.216;5.728;2023-02-15T06:32:58;1.50;99.90
71155;DHT22;59375;53.216;5.728;2023-02-15T06:35:24;1.40;99.90
71155;DHT22;59375;53.216;5.728;2023-02-15T06:37:49;1.40;99.90
71155;DHT22;59375;53.216;5.728;2023-02-15T06:40:15;1.40;99.90
71155;DHT22;59375;53.216;5.728;2023-02-15T06:42:41;1.40;99.90
71155;DHT22;59375;53.216;5.728;2023-02-15T06:45:06;1.40;99.90
71155;DHT22;59375;53.216;5.728;2023-02-15T06:47:32;1.40;99.90
71155;DHT22;59375;53.216;5.728;2023-02-15T06:49:58;1.40;99.90
71155;DHT22;59375;53.216;5.728;2023-02-15T06:52:23;1.50;99.90
71155;DHT22;59375;53.216;5.728;2023-02-15T06:54:49;1.50;99.90
71155;DHT22;59375;53.216;5.728;2023-02-15T06:57:14;1.50;99.90
71155;DHT22;59375;53.216;5.728;2023-02-15T06:59:40;1.50;99.90
71155;DHT22;59375;53.216;5.728;2023-02-15T07:02:05;1.50;99.90
71155;DHT22;59375;53.216;5.728;2023-02-15T07:04:31;1.50;99.90
71155;DHT22;59375;53.216;5.728;2023-02-15T07:06:56;1.50;99.90
71155;DHT22;59375;53.216;5.728;2023-02-15T07:09:22;1.50;99.90
71155;DHT22;59375;53.216;5.728;2023-02-15T07:11:47;1.50;99.90
71155;DHT22;59375;53.216;5.728;2023-02-15T07:14:31;1.50;99.90
71155;DHT22;59375;53.216;5.728;2023-02-15T07:16:57;1.50;99.90
71155;DHT22;59375;53.216;5.728;2023-02-15T07:19:22;1.50;99.90
71155;DHT22;59375;53.216;5.728;2023-02-15T07:21:48;1.50;99.90
71155;DHT22;59375;53.216;5.728;2023-02-15T07:24:13;1.50;99.90
71155;DHT22;59375;53.216;5.728;2023-02-15T07:26:39;1.60;99.90
71155;DHT22;59375;53.216;5.728;2023-02-15T07:29:04;1.60;99.90
71155;DHT22;59375;53.216;5.728;2023-02-15T07:31:30;1.70;99.90
71155;DHT22;59375;53.216;5.728;2023-02-15T07:33:55;1.70;99.90
71155;DHT22;59375;53.216;5.728;2023-02-15T07:36:21;1.80;99.90
71155;DHT22;59375;53.216;5.728;2023-02-15T07:38:46;1.90;99.90
71155;DHT22;59375;53.216;5.728;2023-02-15T07:41:13;1.90;99.90
71155;DHT22;59375;53.216;5.728;2023-02-15T07:43:40;1.90;99.90
71155;DHT22;59375;53.216;5.728;2023-02-15T07:46:07;2.00;99.90
71155;DHT22;59375;53.216;5.728;2023-02-15T07:48:33;2.00;99.90
71155;DHT22;59375;53.216;5.728;2023-02-15T07:50:59;2.10;99.90
71155;DHT22;59375;53.216;5.728;2023-02-15T07:53:25;2.10;99.90
71155;DHT22;59375;53.216;5.728;2023-02-15T07:55:50;2.20;99.90
71155;DHT22;59375;53.216;5.728;2023-02-15T07:58:17;2.40;99.90
71155;DHT22;59375;53.216;5.728;2023-02-15T08:00:43;2.60;99.90
71155;DHT22;59375;53.216;5.728;2023-02-15T08:03:26;2.80;99.90
71155;DHT22;59375;53.216;5.728;2023-02-15T08:05:55;2.90;99.90
71155;DHT22;59375;53.216;5.728;2023-02-15T08:08:21;3.00;99.90
71155;DHT22;59375;53.216;5.728;2023-02-15T08:11:02;3.00;99.90
71155;DHT22;59375;53.216;5.728;2023-02-15T08:13:47;3.00;99.90
71155;DHT22;59375;53.216;5.728;2023-02-15T08:16:21;3.20;99.90
71155;DHT22;59375;53.216;5.728;2023-02-15T08:18:46;3.30;99.90
71155;DHT22;59375;53.216;5.728;2023-02-15T08:21:13;3.60;99.90
71155;DHT22;59375;53.216;5.728;2023-02-15T08:23:38;3.70;99.90
71155;DHT22;59375;53.216;5.728;2023-02-15T08:26:04;3.80;99.90
71155;DHT22;59375;53.216;5.728;2023-02-15T08:28:30;3.90;99.90
71155;DHT22;59375;53.216;5.728;2023-02-15T08:30:55;4.00;99.90
71155;DHT22;59375;53.216;5.728;2023-02-15T08:33:20;4.10;99.90
71155;DHT22;59375;53.216;5.728;2023-02-15T08:35:46;4.10;99.90
71155;DHT22;59375;53.216;5.728;2023-02-15T08:38:12;4.20;99.90
71155;DHT22;59375;53.216;5.728;2023-02-15T08:40:37;4.20;99.90
71155;DHT22;59375;53.216;5.728;2023-02-15T08:43:03;4.10;99.90
71155;DHT22;59375;53.216;5.728;2023-02-15T08:45:28;4.10;99.90
71155;DHT22;59375;53.216;5.728;2023-02-15T08:47:54;4.10;99.90
71155;DHT22;59375;53.216;5.728;2023-02-15T08:50:19;4.30;99.90
71155;DHT22;59375;53.216;5.728;2023-02-15T08:52:45;4.40;99.90
71155;DHT22;59375;53.216;5.728;2023-02-15T08:55:10;4.60;99.90
71155;DHT22;59375;53.216;5.728;2023-02-15T08:57:35;4.80;99.90
71155;DHT22;59375;53.216;5.728;2023-02-15T09:00:02;4.80;99.90
71155;DHT22;59375;53.216;5.728;2023-02-15T09:02:29;4.90;99.90
71155;DHT22;59375;53.216;5.728;2023-02-15T09:04:55;4.90;99.90
71155;DHT22;59375;53.216;5.728;2023-02-15T09:07:20;4.90;99.90
71155;DHT22;59375;53.216;5.728;2023-02-15T09:09:46;4.90;99.90
71155;DHT22;59375;53.216;5.728;2023-02-15T09:12:11;5.00;99.90
71155;DHT22;59375;53.216;5.728;2023-02-15T09:14:37;5.00;99.90
71155;DHT22;59375;53.216;5.728;2023-02-15T09:17:02;5.10;99.90
71155;DHT22;59375;53.216;5.728;2023-02-15T09:19:28;5.10;99.90
71155;DHT22;59375;53.216;5.728;2023-02-15T09:21:54;5.20;99.90
71155;DHT22;59375;53.216;5.728;2023-02-15T09:24:20;5.30;99.90
71155;DHT22;59375;53.216;5.728;2023-02-15T09:26:46;5.40;99.90
71155;DHT22;59375;53.216;5.728;2023-02-15T09:29:12;5.50;99.90
71155;DHT22;59375;53.216;5.728;2023-02-15T09:31:41;5.60;99.90
71155;DHT22;59375;53.216;5.728;2023-02-15T09:34:09;5.80;99.90
71155;DHT22;59375;53.216;5.728;2023-02-15T09:36:36;6.10;99.90
71155;DHT22;59375;53.216;5.728;2023-02-15T09:39:11;6.30;99.90
71155;DHT22;59375;53.216;5.728;2023-02-15T09:46:34;6.60;99.90
71155;DHT22;59375;53.216;5.728;2023-02-15T09:49:08;6.70;99.90
71155;DHT22;59375;53.216;5.728;2023-02-15T09:51:45;6.70;99.90
71155;DHT22;59375;53.216;5.728;2023-02-15T09:54:32;6.70;99.90
71155;DHT22;59375;53.216;5.728;2023-02-15T10:02:24;6.70;99.90
71155;DHT22;59375;53.216;5.728;2023-02-15T10:07:53;7.00;99.90
71155;DHT22;59375;53.216;5.728;2023-02-15T10:10:47;7.20;99.90
71155;DHT22;59375;53.216;5.728;2023-02-15T10:21:29;7.60;99.90
71155;DHT22;59375;53.216;5.728;2023-02-15T10:26:35;8.00;99.90
71155;DHT22;59375;53.216;5.728;2023-02-15T10:29:23;8.20;99.90
71155;DHT22;59375;53.216;5.728;2023-02-15T10:31:59;8.30;99.90
71155;DHT22;59375;53.216;5.728;2023-02-15T10:37:00;8.40;99.90
71155;DHT22;59375;53.216;5.728;2023-02-15T10:42:11;8.60;99.90
71155;DHT22;59375;53.216;5.728;2023-02-15T10:44:47;8.70;99.90
71155;DHT22;59375;53.216;5.728;2023-02-15T10:50:12;8.70;99.90
71155;DHT22;59375;53.216;5.728;2023-02-15T11:01:23;9.30;99.90
71155;DHT22;59375;53.216;5.728;2023-02-15T11:06:17;9.30;99.90
71155;DHT22;59375;53.216;5.728;2023-02-15T11:08:44;9.30;99.90
71155;DHT22;59375;53.216;5.728;2023-02-15T11:11:12;9.30;99.90
71155;DHT22;59375;53.216;5.728;2023-02-15T11:13:42;9.50;99.90
71155;DHT22;59375;53.216;5.728;2023-02-15T11:16:11;9.70;99.90
71155;DHT22;59375;53.216;5.728;2023-02-15T11:19:12;9.90;99.90
71155;DHT22;59375;53.216;5.728;2023-02-15T11:21:32;10.00;99.90
71155;DHT22;59375;53.216;5.728;2023-02-15T11:23:59;10.10;99.90
71155;DHT22;59375;53.216;5.728;2023-02-15T11:29:02;10.30;99.90
71155;DHT22;59375;53.216;5.728;2023-02-15T11:31:36;10.50;99.90
71155;DHT22;59375;53.216;5.728;2023-02-15T11:34:11;10.70;99.90
71155;DHT22;59375;53.216;5.728;2023-02-15T11:36:38;10.90;99.90
71155;DHT22;59375;53.216;5.728;2023-02-15T11:39:09;11.10;99.90
71155;DHT22;59375;53.216;5.728;2023-02-15T11:41:37;11.30;99.90
71155;DHT22;59375;53.216;5.728;2023-02-15T11:44:14;11.50;99.90
71155;DHT22;59375;53.216;5.728;2023-02-15T11:46:41;11.80;99.90
71155;DHT22;59375;53.216;5.728;2023-02-15T11:49:52;12.20;99.90
71155;DHT22;59375;53.216;5.728;2023-02-15T11:51:53;12.50;99.90
71155;DHT22;59375;53.216;5.728;2023-02-15T11:54:19;13.10;99.90
71155;DHT22;59375;53.216;5.728;2023-02-15T11:56:46;13.80;99.90
71155;DHT22;59375;53.216;5.728;2023-02-15T11:59:24;14.10;99.90
71155;DHT22;59375;53.216;5.728;2023-02-15T12:01:51;14.50;99.90
71155;DHT22;59375;53.216;5.728;2023-02-15T12:07:14;14.70;99.90
71155;DHT22;59375;53.216;5.728;2023-02-15T12:12:29;14.40;99.90
71155;DHT22;59375;53.216;5.728;2023-02-15T12:14:55;14.30;99.90
71155;DHT22;59375;53.216;5.728;2023-02-15T12:17:22;14.50;99.90
71155;DHT22;59375;53.216;5.728;2023-02-15T12:19:48;14.60;99.90
71155;DHT22;59375;53.216;5.728;2023-02-15T12:22:25;14.60;99.90
71155;DHT22;59375;53.216;5.728;2023-02-15T12:24:52;14.90;99.90
71155;DHT22;59375;53.216;5.728;2023-02-15T12:27:19;15.30;99.90
71155;DHT22;59375;53.216;5.728;2023-02-15T12:29:48;15.60;99.90
71155;DHT22;59375;53.216;5.728;2023-02-15T12:32:18;16.00;99.90
71155;DHT22;59375;53.216;5.728;2023-02-15T12:34:44;16.40;99.90
71155;DHT22;59375;53.216;5.728;2023-02-15T12:37:21;16.50;99.90
71155;DHT22;59375;53.216;5.728;2023-02-15T12:39:55;16.60;99.90
71155;DHT22;59375;53.216;5.728;2023-02-15T12:42:21;15.90;99.90
71155;DHT22;59375;53.216;5.728;2023-02-15T12:47:19;15.70;99.90
71155;DHT22;59375;53.216;5.728;2023-02-15T12:49:44;15.80;99.90
71155;DHT22;59375;53.216;5.728;2023-02-15T12:52:28;15.60;99.90
71155;DHT22;59375;53.216;5.728;2023-02-15T12:54:54;15.40;99.90
71155;DHT22;59375;53.216;5.728;2023-02-15T12:57:32;15.10;99.90
71155;DHT22;59375;53.216;5.728;2023-02-15T13:02:46;13.90;99.90
71155;DHT22;59375;53.216;5.728;2023-02-15T13:07:54;13.50;99.90
71155;DHT22;59375;53.216;5.728;2023-02-15T13:10:22;13.30;99.90
71155;DHT22;59375;53.216;5.728;2023-02-15T13:12:49;13.20;99.90
71155;DHT22;59375;53.216;5.728;2023-02-15T13:15:32;12.90;99.90
71155;DHT22;59375;53.216;5.728;2023-02-15T13:17:59;12.70;99.90
71155;DHT22;59375;53.216;5.728;2023-02-15T13:20:26;12.40;99.90
71155;DHT22;59375;53.216;5.728;2023-02-15T13:22:58;12.20;99.90
71155;DHT22;59375;53.216;5.728;2023-02-15T13:25:24;12.00;99.90
71155;DHT22;59375;53.216;5.728;2023-02-15T13:27:51;11.80;99.90
71155;DHT22;59375;53.216;5.728;2023-02-15T13:30:25;11.60;99.90
71155;DHT22;59375;53.216;5.728;2023-02-15T13:32:52;11.50;99.90
71155;DHT22;59375;53.216;5.728;2023-02-15T13:35:19;11.50;99.90
71155;DHT22;59375;53.216;5.728;2023-02-15T13:38:02;11.60;99.90
71155;DHT22;59375;53.216;5.728;2023-02-15T13:53:32;11.40;99.90
71155;DHT22;59375;53.216;5.728;2023-02-15T13:56:06;11.30;99.90
71155;DHT22;59375;53.216;5.728;2023-02-15T14:01:10;11.10;99.90
71155;DHT22;59375;53.216;5.728;2023-02-15T14:08:46;10.90;99.90
71155;DHT22;59375;53.216;5.728;2023-02-15T14:11:27;10.90;99.90
71155;DHT22;59375;53.216;5.728;2023-02-15T14:13:58;10.90;99.90
71155;DHT22;59375;53.216;5.728;2023-02-15T14:24:17;11.10;99.90
71155;DHT22;59375;53.216;5.728;2023-02-15T14:26:47;11.20;99.90
71155;DHT22;59375;53.216;5.728;2023-02-15T14:29:19;11.30;99.90
71155;DHT22;59375;53.216;5.728;2023-02-15T14:31:48;11.30;99.90
71155;DHT22;59375;53.216;5.728;2023-02-15T14:36:42;11.60;99.90
71155;DHT22;59375;53.216;5.728;2023-02-15T14:44:38;11.20;99.90
71155;DHT22;59375;53.216;5.728;2023-02-15T14:47:10;11.20;99.90
71155;DHT22;59375;53.216;5.728;2023-02-15T14:49:38;11.10;99.90
71155;DHT22;59375;53.216;5.728;2023-02-15T14:52:13;11.10;99.90
71155;DHT22;59375;53.216;5.728;2023-02-15T15:04:33;10.40;99.90
71155;DHT22;59375;53.216;5.728;2023-02-15T15:09:34;10.20;99.90
71155;DHT22;59375;53.216;5.728;2023-02-15T15:14:53;10.00;99.90
71155;DHT22;59375;53.216;5.728;2023-02-15T15:19:58;9.80;99.90
71155;DHT22;59375;53.216;5.728;2023-02-15T15:22:25;9.70;99.90
71155;DHT22;59375;53.216;5.728;2023-02-15T15:24:51;9.70;99.90
71155;DHT22;59375;53.216;5.728;2023-02-15T15:30:02;9.40;99.90
71155;DHT22;59375;53.216;5.728;2023-02-15T15:32:28;9.40;99.90
71155;DHT22;59375;53.216;5.728;2023-02-15T15:45:29;9.20;99.90
71155;DHT22;59375;53.216;5.728;2023-02-15T15:50:27;9.00;99.90
71155;DHT22;59375;53.216;5.728;2023-02-15T15:52:54;8.90;99.90
71155;DHT22;59375;53.216;5.728;2023-02-15T15:55:21;8.90;99.90
71155;DHT22;59375;53.216;5.728;2023-02-15T15:57:49;8.90;99.90
71155;DHT22;59375;53.216;5.728;2023-02-15T16:00:28;8.80;99.90
71155;DHT22;59375;53.216;5.728;2023-02-15T16:02:56;8.70;99.90
71155;DHT22;59375;53.216;5.728;2023-02-15T16:05:21;8.70;99.90
71155;DHT22;59375;53.216;5.728;2023-02-15T16:07:47;8.70;99.90
71155;DHT22;59375;53.216;5.728;2023-02-15T16:10:20;8.60;99.90
71155;DHT22;59375;53.216;5.728;2023-02-15T16:12:46;8.50;99.90
71155;DHT22;59375;53.216;5.728;2023-02-15T16:15:19;8.50;99.90
71155;DHT22;59375;53.216;5.728;2023-02-15T16:17:47;8.40;99.90
71155;DHT22;59375;53.216;5.728;2023-02-15T16:20:19;8.40;99.90
71155;DHT22;59375;53.216;5.728;2023-02-15T16:22:49;8.30;99.90
71155;DHT22;59375;53.216;5.728;2023-02-15T16:27:44;8.10;99.90
71155;DHT22;59375;53.216;5.728;2023-02-15T16:30:20;8.10;99.90
71155;DHT22;59375;53.216;5.728;2023-02-15T16:32:46;8.00;99.90
71155;DHT22;59375;53.216;5.728;2023-02-15T16:35:14;7.90;99.90
71155;DHT22;59375;53.216;5.728;2023-02-15T16:37:40;7.80;99.90
71155;DHT22;59375;53.216;5.728;2023-02-15T16:40:06;7.80;99.90
71155;DHT22;59375;53.216;5.728;2023-02-15T16:42:31;7.70;99.90
71155;DHT22;59375;53.216;5.728;2023-02-15T16:47:55;7.70;99.90
71155;DHT22;59375;53.216;5.728;2023-02-15T16:50:27;7.60;99.90
71155;DHT22;59375;53.216;5.728;2023-02-15T16:52:54;7.50;99.90
71155;DHT22;59375;53.216;5.728;2023-02-15T16:55:24;7.50;99.90
71155;DHT22;59375;53.216;5.728;2023-02-15T16:57:50;7.40;99.90
71155;DHT22;59375;53.216;5.728;2023-02-15T17:00:21;7.40;99.90
71155;DHT22;59375;53.216;5.728;2023-02-15T17:03:01;7.40;99.90
71155;DHT22;59375;53.216;5.728;2023-02-15T17:05:32;7.30;99.90
71155;DHT22;59375;53.216;5.728;2023-02-15T17:08:14;7.30;99.90
71155;DHT22;59375;53.216;5.728;2023-02-15T17:10:41;7.30;99.90
71155;DHT22;59375;53.216;5.728;2023-02-15T17:13:13;7.20;99.90
71155;DHT22;59375;53.216;5.728;2023-02-15T17:15:40;7.10;99.90
71155;DHT22;59375;53.216;5.728;2023-02-15T17:18:09;7.10;99.90
71155;DHT22;59375;53.216;5.728;2023-02-15T17:20:37;7.10;99.90
71155;DHT22;59375;53.216;5.728;2023-02-15T17:23:04;7.00;99.90
71155;DHT22;59375;53.216;5.728;2023-02-15T17:25:35;7.00;99.90
71155;DHT22;59375;53.216;5.728;2023-02-15T17:28:01;6.90;99.90
71155;DHT22;59375;53.216;5.728;2023-02-15T17:30:28;6.90;99.90
71155;DHT22;59375;53.216;5.728;2023-02-15T17:33:01;6.90;99.90
71155;DHT22;59375;53.216;5.728;2023-02-15T17:35:28;6.90;99.90
71155;DHT22;59375;53.216;5.728;2023-02-15T17:40:26;6.80;99.90
71155;DHT22;59375;53.216;5.728;2023-02-15T17:42:52;6.80;99.90
71155;DHT22;59375;53.216;5.728;2023-02-15T17:45:18;6.70;99.90
71155;DHT22;59375;53.216;5.728;2023-02-15T17:47:44;6.70;99.90
71155;DHT22;59375;53.216;5.728;2023-02-15T17:50:15;6.70;99.90
71155;DHT22;59375;53.216;5.728;2023-02-15T17:52:41;6.70;99.90
71155;DHT22;59375;53.216;5.728;2023-02-15T17:55:13;6.70;99.90
71155;DHT22;59375;53.216;5.728;2023-02-15T17:57:58;6.70;99.90
71155;DHT22;59375;53.216;5.728;2023-02-15T18:00:23;6.70;99.90
71155;DHT22;59375;53.216;5.728;2023-02-15T18:03:08;6.70;99.90
71155;DHT22;59375;53.216;5.728;2023-02-15T18:05:53;6.70;99.90
71155;DHT22;59375;53.216;5.728;2023-02-15T18:08:37;6.70;99.90
71155;DHT22;59375;53.216;5.728;2023-02-15T18:11:22;6.70;99.90
71155;DHT22;59375;53.216;5.728;2023-02-15T18:14:06;6.70;99.90
71155;DHT22;59375;53.216;5.728;2023-02-15T18:16:33;6.70;99.90
71155;DHT22;59375;53.216;5.728;2023-02-15T18:18:59;6.70;99.90
71155;DHT22;59375;53.216;5.728;2023-02-15T18:21:25;6.70;99.90
71155;DHT22;59375;53.216;5.728;2023-02-15T18:23:51;6.70;99.90
71155;DHT22;59375;53.216;5.728;2023-02-15T18:26:21;6.60;99.90
71155;DHT22;59375;53.216;5.728;2023-02-15T18:28:47;6.60;99.90
71155;DHT22;59375;53.216;5.728;2023-02-15T18:31:13;6.60;99.90